createdAt,value
2018-03-26T00:00:33.194Z,42.6
2018-03-26T00:01:23.906Z,42.7
2018-03-26T00:02:14.100Z,42.6
2018-03-26T00:03:04.056Z,42.6
2018-03-26T00:03:53.334Z,42.6
2018-03-26T00:04:43.596Z,42.6
2018-03-26T00:05:33.959Z,42.6
2018-03-26T00:06:23.991Z,42.6
2018-03-26T00:07:14.896Z,42.6
2018-03-26T00:08:04.083Z,42.6
2018-03-26T00:08:53.792Z,42.5
2018-03-26T00:09:44.797Z,42.5
2018-03-26T00:10:34.237Z,42.5
2018-03-26T00:11:24.902Z,42.5
2018-03-26T00:12:14.564Z,42.5
2018-03-26T00:13:03.477Z,42.4
2018-03-26T00:13:54.666Z,42.4
2018-03-26T00:14:45.172Z,42.4
2018-03-26T00:15:34.919Z,42.4
2018-03-26T00:16:24.312Z,42.4
2018-03-26T00:17:14.826Z,42.4
2018-03-26T00:18:04.498Z,42.4
2018-03-26T00:18:54.615Z,42.4
2018-03-26T00:19:44.316Z,42.4
2018-03-26T00:20:34.114Z,42.3
2018-03-26T00:21:24.133Z,42.3
2018-03-26T00:22:15.168Z,42.3
2018-03-26T00:23:04.076Z,42.3
2018-03-26T00:23:54.883Z,42.3
2018-03-26T00:24:44.574Z,42.3
2018-03-26T00:25:35.485Z,42.3
2018-03-26T00:26:25.626Z,42.3
2018-03-26T00:27:14.770Z,42.3
2018-03-26T00:28:05.193Z,42.3
2018-03-26T00:28:55.428Z,42.2
2018-03-26T00:29:45.003Z,42.3
2018-03-26T00:30:35.722Z,42.3
2018-03-26T00:31:25.611Z,42.2
2018-03-26T00:32:15.760Z,42.2
2018-03-26T00:33:05.389Z,42.2
2018-03-26T00:33:56.450Z,42.1
2018-03-26T00:34:45.340Z,42.1
2018-03-26T00:35:35.240Z,42.1
2018-03-26T00:36:25.573Z,42.1
2018-03-26T00:37:15.818Z,42.1
2018-03-26T00:38:06.283Z,42.1
2018-03-26T00:38:55.541Z,42.1
2018-03-26T00:39:46.398Z,42.1
2018-03-26T00:40:35.573Z,42.1
2018-03-26T00:41:25.687Z,42.1
2018-03-26T00:42:16.158Z,42.1
2018-03-26T00:43:06.327Z,42.1
2018-03-26T00:43:55.869Z,42
2018-03-26T00:44:46.132Z,42
2018-03-26T00:45:36.677Z,42
2018-03-26T00:46:26.795Z,42
2018-03-26T00:47:16.767Z,42
2018-03-26T00:48:07.390Z,42
2018-03-26T00:48:57.701Z,42
2018-03-26T00:49:47.824Z,41.9
2018-03-26T00:50:37.593Z,41.9
2018-03-26T00:51:27.335Z,41.9
2018-03-26T00:52:17.974Z,42
2018-03-26T00:53:07.733Z,41.9
2018-03-26T00:53:57.765Z,41.9
2018-03-26T00:54:47.338Z,41.9
2018-03-26T00:55:37.117Z,41.9
2018-03-26T00:56:27.744Z,41.9
2018-03-26T00:57:17.509Z,41.9
2018-03-26T00:58:07.617Z,41.9
2018-03-26T00:58:57.912Z,41.9
2018-03-26T00:59:47.421Z,41.9
2018-03-26T01:00:37.198Z,41.9
2018-03-26T01:01:28.273Z,41.9
2018-03-26T01:02:17.854Z,41.8
2018-03-26T01:03:08.126Z,41.8
2018-03-26T01:03:58.181Z,41.8
2018-03-26T01:04:48.856Z,41.8
2018-03-26T01:05:38.444Z,41.8
2018-03-26T01:06:28.907Z,41.8
2018-03-26T01:07:18.999Z,41.8
2018-03-26T01:08:08.789Z,41.8
2018-03-26T01:08:58.537Z,41.8
2018-03-26T01:09:48.866Z,41.8
2018-03-26T01:10:39.234Z,41.8
2018-03-26T01:11:28.706Z,41.8
2018-03-26T01:12:18.748Z,41.7
2018-03-26T01:13:09.414Z,41.7
2018-03-26T01:13:59.426Z,41.7
2018-03-26T01:14:49.198Z,41.7
2018-03-26T01:15:38.968Z,41.7
2018-03-26T01:16:29.054Z,41.6
2018-03-26T01:17:19.676Z,41.6
2018-03-26T01:18:07.903Z,41.6
2018-03-26T01:18:58.651Z,41.6
2018-03-26T01:19:48.498Z,41.6
2018-03-26T01:20:38.872Z,41.6
2018-03-26T01:21:28.928Z,41.6
2018-03-26T01:22:19.060Z,41.6
2018-03-26T01:23:08.933Z,41.6
2018-03-26T01:23:59.078Z,41.6
2018-03-26T01:24:49.245Z,41.6
2018-03-26T01:25:39.424Z,41.6
2018-03-26T01:26:29.739Z,41.6
2018-03-26T01:27:18.646Z,41.5
2018-03-26T01:28:10.165Z,41.5
2018-03-26T01:28:59.132Z,41.5
2018-03-26T01:29:48.904Z,41.5
2018-03-26T01:30:39.267Z,41.4
2018-03-26T01:31:29.709Z,41.5
2018-03-26T01:32:18.985Z,41.4
2018-03-26T01:33:09.144Z,41.4
2018-03-26T01:33:59.662Z,41.4
2018-03-26T01:34:49.545Z,41.4
2018-03-26T01:35:39.782Z,41.4
2018-03-26T01:36:29.913Z,41.4
2018-03-26T01:37:20.172Z,41.4
2018-03-26T01:38:09.575Z,41.4
2018-03-26T01:39:00.275Z,41.4
2018-03-26T01:39:50.044Z,41.4
2018-03-26T01:40:40.125Z,41.4
2018-03-26T01:41:29.896Z,41.3
2018-03-26T01:42:20.872Z,41.3
2018-03-26T01:43:10.902Z,41.3
2018-03-26T01:44:00.980Z,41.3
2018-03-26T01:44:50.122Z,41.3
2018-03-26T01:45:40.797Z,41.3
2018-03-26T01:46:30.147Z,41.3
2018-03-26T01:47:20.544Z,41.3
2018-03-26T01:48:10.957Z,41.3
2018-03-26T01:49:00.904Z,41.3
2018-03-26T01:49:51.144Z,41.2
2018-03-26T01:50:40.343Z,41.2
2018-03-26T01:51:29.883Z,41.2
2018-03-26T01:52:21.131Z,41.2
2018-03-26T01:53:10.894Z,41.1
2018-03-26T01:54:01.618Z,41.1
2018-03-26T01:54:50.819Z,41.1
2018-03-26T01:55:41.246Z,41.1
2018-03-26T01:56:31.533Z,41.1
2018-03-26T01:57:20.884Z,41.1
2018-03-26T01:58:11.145Z,41.1
2018-03-26T01:59:01.428Z,41.1
2018-03-26T01:59:52.030Z,41.1
2018-03-26T02:00:41.813Z,41.3
2018-03-26T02:01:32.184Z,41.6
2018-03-26T02:02:21.413Z,41.8
2018-03-26T02:03:12.057Z,42.1
2018-03-26T02:04:01.443Z,42.3
2018-03-26T02:04:51.680Z,42.5
2018-03-26T02:05:42.233Z,42.7
2018-03-26T02:06:32.400Z,42.9
2018-03-26T02:07:21.576Z,43.1
2018-03-26T02:08:11.343Z,43.2
2018-03-26T02:09:01.509Z,43.3
2018-03-26T02:09:51.958Z,43.4
2018-03-26T02:10:42.780Z,43.6
2018-03-26T02:11:32.373Z,43.7
2018-03-26T02:12:21.905Z,43.8
2018-03-26T02:13:12.266Z,43.9
2018-03-26T02:14:02.127Z,44
2018-03-26T02:14:52.630Z,44.2
2018-03-26T02:15:42.813Z,44.3
2018-03-26T02:16:32.085Z,44.4
2018-03-26T02:17:22.930Z,44.5
2018-03-26T02:18:11.691Z,44.6
2018-03-26T02:19:02.835Z,44.7
2018-03-26T02:19:52.112Z,44.8
2018-03-26T02:20:42.959Z,44.9
2018-03-26T02:21:32.814Z,45
2018-03-26T02:22:21.896Z,45.1
2018-03-26T02:23:12.651Z,45.2
2018-03-26T02:24:02.889Z,45.3
2018-03-26T02:24:52.662Z,45.4
2018-03-26T02:25:42.900Z,45.6
2018-03-26T02:26:32.926Z,45.7
2018-03-26T02:27:22.636Z,45.8
2018-03-26T02:28:12.689Z,45.9
2018-03-26T02:29:02.477Z,46
2018-03-26T02:29:52.891Z,46.1
2018-03-26T02:30:43.160Z,46.2
2018-03-26T02:31:33.311Z,46.3
2018-03-26T02:32:23.764Z,46.3
2018-03-26T02:33:12.552Z,46.4
2018-03-26T02:34:03.087Z,46.4
2018-03-26T02:34:54.133Z,46.4
2018-03-26T02:35:43.316Z,46.4
2018-03-26T02:36:33.989Z,46.4
2018-03-26T02:37:23.022Z,46.5
2018-03-26T02:38:14.960Z,46.5
2018-03-26T02:39:04.262Z,46.5
2018-03-26T02:39:54.577Z,46.6
2018-03-26T02:40:43.797Z,46.6
2018-03-26T02:41:33.906Z,46.6
2018-03-26T02:42:24.742Z,46.6
2018-03-26T02:43:14.302Z,46.7
2018-03-26T02:44:04.563Z,46.7
2018-03-26T02:44:54.712Z,46.7
2018-03-26T02:45:44.278Z,46.8
2018-03-26T02:46:34.524Z,46.8
2018-03-26T02:47:24.501Z,46.8
2018-03-26T02:48:15.739Z,46.8
2018-03-26T02:49:04.402Z,46.9
2018-03-26T02:49:54.702Z,46.9
2018-03-26T02:50:45.547Z,46.9
2018-03-26T02:51:35.599Z,46.9
2018-03-26T02:52:25.051Z,47
2018-03-26T02:53:14.687Z,47
2018-03-26T02:54:05.452Z,47.1
2018-03-26T02:54:55.774Z,47.1
2018-03-26T02:55:44.668Z,47.1
2018-03-26T02:56:35.480Z,47.1
2018-03-26T02:57:25.188Z,47.2
2018-03-26T02:58:15.279Z,47.3
2018-03-26T02:59:05.618Z,47.3
2018-03-26T02:59:55.669Z,47.3
2018-03-26T03:00:45.514Z,47.3
2018-03-26T03:01:35.187Z,47.3
2018-03-26T03:02:25.913Z,47.3
2018-03-26T03:03:16.906Z,47.3
2018-03-26T03:04:06.698Z,47.3
2018-03-26T03:04:56.440Z,47.3
2018-03-26T03:05:46.823Z,47.4
2018-03-26T03:06:35.998Z,47.4
2018-03-26T03:07:26.633Z,47.4
2018-03-26T03:08:17.000Z,47.4
2018-03-26T03:09:07.287Z,47.4
2018-03-26T03:09:56.810Z,47.4
2018-03-26T03:10:47.127Z,47.4
2018-03-26T03:11:37.161Z,47.4
2018-03-26T03:12:27.277Z,47.5
2018-03-26T03:13:17.316Z,47.5
2018-03-26T03:14:07.354Z,47.6
2018-03-26T03:14:56.601Z,47.6
2018-03-26T03:15:47.748Z,47.6
2018-03-26T03:16:37.242Z,47.6
2018-03-26T03:17:27.849Z,47.6
2018-03-26T03:18:17.947Z,47.6
2018-03-26T03:19:07.489Z,47.6
2018-03-26T03:19:57.719Z,47.6
2018-03-26T03:20:47.792Z,47.7
2018-03-26T03:21:37.849Z,47.6
2018-03-26T03:22:28.182Z,47.7
2018-03-26T03:23:18.271Z,47.7
2018-03-26T03:24:08.028Z,47.7
2018-03-26T03:24:58.072Z,47.7
2018-03-26T03:25:47.948Z,47.8
2018-03-26T03:26:38.256Z,47.8
2018-03-26T03:27:27.718Z,47.8
2018-03-26T03:28:18.067Z,47.8
2018-03-26T03:29:07.361Z,47.8
2018-03-26T03:29:58.141Z,47.8
2018-03-26T03:30:47.477Z,47.8
2018-03-26T03:31:38.000Z,47.8
2018-03-26T03:32:26.486Z,47.8
2018-03-26T03:33:18.304Z,47.8
2018-03-26T03:34:07.715Z,47.8
2018-03-26T03:34:58.021Z,47.8
2018-03-26T03:35:48.858Z,47.8
2018-03-26T03:36:37.880Z,47.8
2018-03-26T03:37:27.611Z,47.8
2018-03-26T03:38:18.266Z,47.8
2018-03-26T03:39:07.811Z,47.8
2018-03-26T03:39:58.461Z,47.8
2018-03-26T03:40:48.525Z,47.8
2018-03-26T03:41:39.004Z,47.8
2018-03-26T03:42:28.810Z,47.8
2018-03-26T03:43:18.514Z,47.8
2018-03-26T03:44:08.270Z,47.8
2018-03-26T03:44:58.229Z,47.8
2018-03-26T03:45:47.902Z,47.8
2018-03-26T03:46:38.136Z,47.8
2018-03-26T03:47:28.861Z,47.8
2018-03-26T03:48:18.661Z,47.7
2018-03-26T03:49:08.800Z,47.7
2018-03-26T03:49:59.240Z,47.7
2018-03-26T03:50:50.250Z,47.7
2018-03-26T03:51:38.801Z,47.7
2018-03-26T03:52:29.217Z,47.7
2018-03-26T03:53:20.068Z,47.7
2018-03-26T03:54:09.897Z,47.7
2018-03-26T03:54:59.595Z,47.7
2018-03-26T03:55:49.739Z,47.7
2018-03-26T03:56:39.603Z,47.7
2018-03-26T03:57:29.354Z,47.6
2018-03-26T03:58:19.136Z,47.6
2018-03-26T03:59:09.350Z,47.6
2018-03-26T03:59:59.721Z,47.6
2018-03-26T04:00:49.505Z,47.6
2018-03-26T04:01:39.275Z,47.6
2018-03-26T04:02:29.610Z,47.6
2018-03-26T04:03:19.696Z,47.6
2018-03-26T04:04:10.229Z,47.6
2018-03-26T04:04:59.779Z,47.6
2018-03-26T04:05:49.821Z,47.6
2018-03-26T04:06:40.071Z,47.6
2018-03-26T04:07:29.738Z,47.6
2018-03-26T04:08:20.383Z,47.6
2018-03-26T04:09:10.081Z,47.6
2018-03-26T04:10:01.179Z,47.6
2018-03-26T04:10:49.766Z,47.6
2018-03-26T04:11:39.341Z,47.6
2018-03-26T04:12:31.378Z,47.6
2018-03-26T04:13:20.541Z,47.6
2018-03-26T04:14:10.375Z,47.5
2018-03-26T04:15:01.848Z,47.5
2018-03-26T04:15:50.249Z,47.5
2018-03-26T04:16:40.571Z,47.5
2018-03-26T04:17:31.105Z,47.5
2018-03-26T04:18:21.420Z,47.5
2018-03-26T04:19:10.951Z,47.4
2018-03-26T04:20:01.086Z,47.4
2018-03-26T04:20:51.064Z,47.4
2018-03-26T04:21:41.505Z,47.4
2018-03-26T04:22:31.764Z,47.4
2018-03-26T04:23:20.742Z,47.4
2018-03-26T04:24:11.177Z,47.4
2018-03-26T04:25:01.449Z,47.4
2018-03-26T04:25:51.950Z,47.4
2018-03-26T04:26:41.816Z,47.3
2018-03-26T04:27:31.553Z,47.3
2018-03-26T04:28:21.717Z,47.3
2018-03-26T04:29:11.004Z,47.3
2018-03-26T04:30:00.883Z,47.3
2018-03-26T04:30:52.395Z,47.3
2018-03-26T04:31:41.932Z,47.3
2018-03-26T04:32:32.338Z,47.3
2018-03-26T04:33:22.205Z,47.3
2018-03-26T04:34:11.861Z,47.2
2018-03-26T04:35:02.601Z,47.2
2018-03-26T04:35:51.487Z,47.2
2018-03-26T04:36:42.310Z,47.2
2018-03-26T04:37:32.853Z,47.2
2018-03-26T04:38:22.348Z,47.2
2018-03-26T04:39:12.882Z,47.1
2018-03-26T04:40:02.069Z,47.2
2018-03-26T04:40:53.021Z,47.2
2018-03-26T04:41:42.230Z,47.1
2018-03-26T04:42:32.548Z,47.1
2018-03-26T04:43:22.668Z,47.1
2018-03-26T04:44:12.236Z,47.1
2018-03-26T04:45:01.838Z,47.1
2018-03-26T04:45:52.473Z,47.1
2018-03-26T04:46:42.605Z,47.1
2018-03-26T04:47:33.672Z,47.1
2018-03-26T04:48:22.806Z,47.1
2018-03-26T04:49:12.891Z,47.1
2018-03-26T04:50:03.132Z,47.1
2018-03-26T04:50:52.893Z,47.1
2018-03-26T04:51:42.352Z,47.1
2018-03-26T04:52:33.207Z,47.1
2018-03-26T04:53:23.225Z,47.1
2018-03-26T04:54:13.423Z,47.1
2018-03-26T04:55:03.197Z,47.1
2018-03-26T04:55:54.587Z,47
2018-03-26T04:56:43.585Z,47
2018-03-26T04:57:33.365Z,47
2018-03-26T04:58:23.582Z,47
2018-03-26T04:59:13.797Z,46.9
2018-03-26T05:00:03.623Z,46.9
2018-03-26T05:00:53.184Z,46.9
2018-03-26T05:01:44.116Z,46.9
2018-03-26T05:02:34.204Z,46.9
2018-03-26T05:03:23.964Z,46.9
2018-03-26T05:04:14.359Z,46.9
2018-03-26T05:05:03.941Z,46.9
2018-03-26T05:05:54.008Z,46.8
2018-03-26T05:06:43.984Z,46.8
2018-03-26T05:07:34.018Z,46.8
2018-03-26T05:08:24.085Z,46.8
2018-03-26T05:09:14.427Z,46.8
2018-03-26T05:10:03.996Z,46.8
2018-03-26T05:10:53.664Z,46.8
2018-03-26T05:11:44.309Z,46.8
2018-03-26T05:12:34.529Z,46.8
2018-03-26T05:13:25.093Z,46.8
2018-03-26T05:14:14.959Z,46.8
2018-03-26T05:15:05.051Z,46.7
2018-03-26T05:15:55.093Z,46.7
2018-03-26T05:16:44.626Z,46.7
2018-03-26T20:17:49.141Z,18.1
2018-03-26T20:18:38.652Z,18.3
2018-03-26T20:19:28.769Z,18.5
2018-03-26T20:20:18.740Z,18.8
2018-03-26T20:21:08.523Z,18.9
2018-03-26T20:21:58.864Z,19.2
2018-03-26T20:22:48.926Z,19.5
2018-03-26T20:23:38.978Z,19.8
2018-03-26T20:24:29.096Z,20.1
2018-03-26T20:25:19.081Z,20.4
2018-03-26T20:26:09.201Z,20.7
2018-03-26T20:26:59.244Z,21
2018-03-26T20:27:49.584Z,21.3
2018-03-26T20:28:39.593Z,21.6
2018-03-26T20:29:29.651Z,21.9
2018-03-26T20:30:19.707Z,22.2
2018-03-26T20:31:08.553Z,22.5
2018-03-26T20:31:58.730Z,22.8
2018-03-26T20:32:48.471Z,23.1
2018-03-26T20:33:39.128Z,23.4
2018-03-26T20:34:29.194Z,23.8
2018-03-26T20:35:18.799Z,24.1
2018-03-26T20:36:09.020Z,24.3
2018-03-26T20:36:59.371Z,24.6
2018-03-26T20:37:49.205Z,24.9
2018-03-26T20:38:39.732Z,25.3
2018-03-26T20:39:29.384Z,25.6
2018-03-26T20:40:20.151Z,25.8
2018-03-26T20:41:10.680Z,26.1
2018-03-26T20:42:00.628Z,26.4
2018-03-26T20:42:50.589Z,26.8
2018-03-26T20:43:40.683Z,27.1
2018-03-26T20:44:30.448Z,27.3
2018-03-26T20:45:20.756Z,27.6
2018-03-26T20:46:10.859Z,27.9
2018-03-26T20:47:00.618Z,28.2
2018-03-26T20:47:50.663Z,28.4
2018-03-26T20:48:40.712Z,28.7
2018-03-26T20:49:30.879Z,29
2018-03-26T20:50:20.570Z,29.3
2018-03-26T20:51:10.662Z,29.5
2018-03-26T20:52:01.294Z,29.8
2018-03-26T20:52:51.345Z,30.1
2018-03-26T20:53:41.120Z,30.4
2018-03-26T20:54:31.394Z,30.6
2018-03-26T20:55:20.905Z,30.9
2018-03-26T20:56:11.532Z,31.1
2018-03-26T20:57:01.558Z,31.3
2018-03-26T20:57:51.616Z,31.4
2018-03-26T20:58:41.452Z,31.7
2018-03-26T20:59:31.728Z,31.9
2018-03-26T21:00:21.503Z,32.1
2018-03-26T21:01:11.591Z,32.4
2018-03-26T21:02:01.929Z,32.6
2018-03-26T21:02:51.684Z,32.8
2018-03-26T21:03:42.006Z,33
2018-03-26T21:04:32.102Z,33.3
2018-03-26T21:05:22.139Z,33.4
2018-03-26T21:06:12.596Z,33.6
2018-03-26T21:07:02.286Z,33.9
2018-03-26T21:07:51.869Z,34.1
2018-03-26T21:08:42.490Z,34.3
2018-03-26T21:09:32.442Z,34.6
2018-03-26T21:10:21.386Z,34.8
2018-03-26T21:11:12.235Z,34.9
2018-03-26T21:12:02.663Z,34.9
2018-03-26T21:12:52.711Z,35.1
2018-03-26T21:13:42.729Z,35.1
2018-03-26T21:14:32.548Z,35.2
2018-03-26T21:15:22.823Z,35.3
2018-03-26T21:16:12.344Z,35.3
2018-03-26T21:17:02.975Z,35.4
2018-03-26T21:17:52.744Z,35.4
2018-03-26T21:18:42.287Z,35.4
2018-03-26T21:19:32.938Z,35.5
2018-03-26T21:20:22.899Z,35.6
2018-03-26T21:21:13.229Z,35.6
2018-03-26T21:22:02.747Z,35.6
2018-03-26T21:22:52.761Z,35.6
2018-03-26T21:23:42.581Z,35.6
2018-03-26T21:24:33.067Z,35.6
2018-03-26T21:25:22.964Z,35.7
2018-03-26T21:26:13.033Z,35.7
2018-03-26T21:27:03.076Z,35.8
2018-03-26T21:27:53.408Z,35.7
2018-03-26T21:28:43.496Z,35.7
2018-03-26T21:29:33.535Z,35.8
2018-03-26T21:30:23.627Z,35.8
2018-03-26T21:31:13.922Z,35.8
2018-03-26T21:32:03.993Z,35.8
2018-03-26T21:32:53.756Z,35.8
2018-03-26T21:33:43.838Z,35.8
2018-03-26T21:34:33.932Z,35.8
2018-03-26T21:35:23.919Z,35.8
2018-03-26T21:36:13.690Z,35.8
2018-03-26T21:37:04.027Z,35.8
2018-03-26T21:37:54.115Z,35.8
2018-03-26T21:38:44.151Z,35.8
2018-03-26T21:39:34.493Z,35.8
2018-03-26T21:40:23.986Z,35.8
2018-03-26T21:41:13.322Z,35.8
2018-03-26T21:42:03.869Z,35.9
2018-03-26T21:42:54.274Z,35.9
2018-03-26T21:43:43.708Z,35.8
2018-03-26T21:44:33.806Z,35.8
2018-03-26T21:45:24.180Z,35.9
2018-03-26T21:46:13.665Z,35.8
2018-03-26T21:47:03.600Z,35.9
2018-03-26T21:47:54.269Z,35.9
2018-03-26T21:48:44.031Z,35.9
2018-03-26T21:49:34.069Z,35.9
2018-03-26T21:50:23.727Z,35.9
2018-03-26T21:51:14.475Z,35.9
2018-03-26T21:52:04.829Z,35.8
2018-03-26T21:52:54.498Z,35.9
2018-03-26T21:53:43.984Z,35.9
2018-03-26T21:54:34.715Z,35.9
2018-03-26T21:55:24.427Z,35.9
2018-03-26T21:56:13.774Z,35.9
2018-03-26T21:57:04.154Z,35.9
2018-03-26T21:57:54.361Z,35.9
2018-03-26T21:58:44.497Z,35.9
2018-03-26T21:59:35.053Z,35.9
2018-03-26T22:00:24.839Z,35.9
2018-03-26T22:01:14.677Z,35.9
2018-03-26T22:02:05.026Z,35.9
2018-03-26T22:02:55.284Z,35.9
2018-03-26T22:03:44.360Z,35.9
2018-03-26T22:04:34.052Z,35.9
2018-03-26T22:05:25.586Z,35.9
2018-03-26T22:06:15.626Z,35.9
2018-03-26T22:07:05.122Z,35.9
2018-03-26T22:07:56.214Z,35.9
2018-03-26T22:08:45.690Z,35.8
2018-03-26T22:09:35.594Z,35.9
2018-03-26T22:10:25.033Z,35.9
2018-03-26T22:11:15.565Z,35.9
2018-03-26T22:12:05.258Z,35.9
2018-03-26T22:12:55.973Z,35.8
2018-03-26T22:13:46.133Z,35.8
2018-03-26T22:14:35.607Z,35.8
2018-03-26T22:15:25.580Z,35.8
2018-03-26T22:16:16.286Z,35.8
2018-03-26T22:17:05.705Z,35.8
2018-03-26T22:17:56.427Z,35.8
2018-03-26T22:18:46.090Z,35.8
2018-03-26T22:19:36.523Z,35.8
2018-03-26T22:20:26.014Z,35.8
2018-03-26T22:21:16.953Z,35.8
2018-03-26T22:22:06.637Z,35.8
2018-03-26T22:22:55.782Z,35.8
2018-03-26T22:23:46.026Z,35.8
2018-03-26T22:24:37.152Z,35.8
2018-03-26T22:25:26.881Z,35.8
2018-03-26T22:26:17.120Z,35.8
2018-03-26T22:27:07.193Z,35.8
2018-03-26T22:27:56.542Z,35.8
2018-03-26T22:28:47.360Z,35.8
2018-03-26T22:29:36.273Z,35.8
2018-03-26T22:30:27.112Z,35.8
2018-03-26T22:31:16.529Z,35.8
2018-03-26T22:32:06.819Z,35.8
2018-03-26T22:32:56.388Z,35.8
2018-03-26T22:33:47.018Z,35.8
2018-03-26T22:34:36.859Z,35.8
2018-03-26T22:35:26.676Z,35.8
2018-03-26T22:36:16.822Z,35.8
2018-03-26T22:37:06.959Z,35.8
2018-03-26T22:37:57.694Z,35.8
2018-03-26T22:38:46.868Z,35.8
2018-03-26T22:39:37.222Z,35.8
2018-03-26T22:40:27.357Z,35.7
2018-03-26T22:41:17.946Z,35.7
2018-03-26T22:42:08.866Z,35.7
2018-03-26T22:42:58.098Z,35.7
2018-03-26T22:43:48.478Z,35.8
2018-03-26T22:44:38.548Z,35.7
2018-03-26T22:45:27.696Z,35.7
2018-03-26T22:46:17.573Z,35.7
2018-03-26T22:47:07.873Z,35.7
2018-03-26T22:47:57.599Z,35.7
2018-03-26T22:48:48.371Z,35.7
2018-03-26T22:49:39.098Z,35.7
2018-03-26T22:50:28.606Z,35.7
2018-03-26T22:51:18.041Z,35.7
2018-03-26T22:52:08.943Z,35.7
2018-03-26T22:52:59.051Z,35.7
2018-03-26T22:53:48.380Z,35.6
2018-03-26T22:54:38.643Z,35.6
2018-03-26T22:55:28.507Z,35.6
2018-03-26T22:56:18.652Z,35.6
2018-03-26T22:57:08.543Z,35.6
2018-03-26T22:57:58.600Z,35.6
2018-03-26T22:58:48.852Z,35.6
2018-03-26T22:59:39.184Z,35.6
2018-03-26T23:00:29.535Z,35.6
2018-03-26T23:01:18.725Z,35.6
2018-03-26T23:02:09.194Z,35.6
2018-03-26T23:02:58.544Z,35.6
2018-03-26T23:03:48.960Z,35.6
2018-03-26T23:04:39.640Z,35.6
2018-03-26T23:05:28.735Z,35.6
2018-03-26T23:06:19.795Z,35.6
2018-03-26T23:07:09.419Z,35.5
2018-03-26T23:07:58.887Z,35.6
2018-03-26T23:08:49.036Z,35.6
2018-03-26T23:09:39.383Z,35.6
2018-03-26T23:10:30.267Z,35.6
2018-03-26T23:11:19.292Z,35.6
2018-03-26T23:12:09.755Z,35.5
2018-03-26T23:12:59.757Z,35.5
2018-03-26T23:13:49.674Z,35.5
2018-03-26T23:14:39.657Z,35.5
2018-03-26T23:15:30.855Z,35.5
2018-03-26T23:16:19.587Z,35.5
2018-03-26T23:17:10.150Z,35.5
2018-03-26T23:18:00.159Z,35.4
2018-03-26T23:18:50.784Z,35.4
2018-03-26T23:19:39.601Z,35.4
2018-03-26T23:20:30.719Z,35.4
2018-03-26T23:21:20.752Z,35.4
2018-03-26T23:22:10.186Z,35.4
2018-03-26T23:23:00.834Z,35.4
2018-03-26T23:23:50.956Z,35.4
2018-03-26T23:24:40.425Z,35.4
2018-03-26T23:25:29.929Z,35.4
2018-03-26T23:26:20.754Z,35.4
2018-03-26T23:27:10.801Z,35.4
2018-03-26T23:28:00.872Z,35.4
2018-03-26T23:28:50.912Z,35.4
2018-03-26T23:29:41.275Z,35.4
2018-03-26T23:30:31.116Z,35.4
2018-03-26T23:31:20.298Z,35.4
2018-03-26T23:32:11.024Z,35.3
2018-03-26T23:33:01.657Z,35.4
2018-03-26T23:33:51.011Z,35.4
2018-03-26T23:34:41.376Z,35.3
2018-03-26T23:35:31.359Z,35.3
2018-03-26T23:36:22.421Z,35.3
2018-03-26T23:37:11.293Z,35.3
2018-03-26T23:38:01.119Z,35.3
2018-03-26T23:38:51.358Z,35.3
2018-03-26T23:39:42.378Z,35.3
2018-03-26T23:40:31.758Z,35.3
2018-03-26T23:41:21.758Z,35.3
2018-03-26T23:42:11.728Z,35.3
2018-03-26T23:43:02.200Z,35.3
2018-03-26T23:43:51.756Z,35.3
2018-03-26T23:44:42.099Z,35.3
2018-03-26T23:45:31.499Z,35.3
2018-03-26T23:46:21.350Z,35.3
2018-03-26T23:47:11.713Z,35.3
2018-03-26T23:48:01.864Z,35.2
2018-03-26T23:48:52.598Z,35.2
2018-03-26T23:49:42.649Z,35.2
2018-03-26T23:50:31.944Z,35.2
2018-03-26T23:51:22.757Z,35.2
2018-03-26T23:52:12.690Z,35.2
2018-03-26T23:53:02.099Z,35.2
2018-03-26T23:53:53.062Z,35.2
2018-03-26T23:54:42.132Z,35.2
2018-03-26T23:55:32.459Z,35.1
2018-03-26T23:56:22.619Z,35.1
2018-03-26T23:57:13.488Z,35.1
2018-03-26T23:58:02.439Z,35.1
2018-03-26T23:58:53.189Z,35.1
2018-03-26T23:59:42.665Z,35.1
